Time;durP1;ratioP1;P1;durP2;ratioP2;P2;SDS_P1;SDS_P2;PMS_P1;PMS_P2;Temp;Humidity;BMP_temperature;BMP_pressure;BME280_temperature;BME280_humidity;BME280_pressure;Samples;Min_cycle;Max_cycle;Signal;HPM_P1;HPM_P2
2021/04/03 00:00:35;;;;;;;8.67;4.30;;;;;;;;;;5039761;28;20642;-59
2021/04/03 00:03:01;;;;;;;10.67;4.43;;;;;;;;;;5057849;28;20181;-60
2021/04/03 00:05:28;;;;;;;11.60;4.70;;;;;;;;;;5058962;28;20335;-60
2021/04/03 00:07:54;;;;;;;14.50;5.03;;;;;;;;;;5059209;28;20242;-59
2021/04/03 00:10:42;;;;;;;14.33;4.97;;;;;;;;;;5060479;28;20172;-61
2021/04/03 00:13:08;;;;;;;11.83;4.27;;;;;;;;;;5060424;28;20249;-59
2021/04/03 00:15:34;;;;;;;11.40;5.07;;;;;;;;;;5059310;28;20213;-59
2021/04/03 00:18:00;;;;;;;8.67;4.77;;;;;;;;;;5059100;28;20284;-59
2021/04/03 00:20:28;;;;;;;9.90;4.70;;;;;;;;;;5058647;28;20181;-60
2021/04/03 00:22:54;;;;;;;9.20;4.43;;;;;;;;;;5057582;28;20177;-59
2021/04/03 00:25:20;;;;;;;10.97;5.00;;;;;;;;;;5056359;28;20181;-60
2021/04/03 00:27:46;;;;;;;11.77;4.80;;;;;;;;;;5058848;28;20992;-60
2021/04/03 00:30:19;;;;;;;11.40;4.17;;;;;;;;;;5059602;28;20177;-59
2021/04/03 00:32:47;;;;;;;10.83;4.10;;;;;;;;;;5057475;28;20172;-62
2021/04/03 00:35:14;;;;;;;11.30;4.50;;;;;;;;;;5055834;28;20605;-59
2021/04/03 00:37:40;;;;;;;12.53;4.07;;;;;;;;;;5041622;28;20650;-59
2021/04/03 00:40:08;;;;;;;10.90;3.77;;;;;;;;;;5042290;28;20177;-61
2021/04/03 00:42:34;;;;;;;9.23;3.60;;;;;;;;;;5057853;28;20709;-59
2021/04/03 00:45:00;;;;;;;11.37;3.50;;;;;;;;;;5059671;28;20645;-59
2021/04/03 00:47:27;;;;;;;9.03;3.70;;;;;;;;;;5059798;28;20592;-60
2021/04/03 00:49:53;;;;;;;8.90;3.67;;;;;;;;;;5057103;28;20294;-59
2021/04/03 00:52:19;;;;;;;8.10;3.53;;;;;;;;;;5059326;28;20183;-60
2021/04/03 00:54:45;;;;;;;8.50;3.90;;;;;;;;;;5058816;28;20239;-61
2021/04/03 00:57:11;;;;;;;11.77;3.70;;;;;;;;;;5059284;28;20235;-61
2021/04/03 00:59:37;;;;;;;11.27;3.40;;;;;;;;;;5058771;28;20235;-63
2021/04/03 01:02:04;;;;;;;9.27;3.87;;;;;;;;;;5039086;28;20175;-59
2021/04/03 01:04:30;;;;;;;11.93;3.87;;;;;;;;;;5062400;28;20653;-60
2021/04/03 01:06:56;;;;;;;9.03;3.97;;;;;;;;;;5063779;28;20204;-59
2021/04/03 01:09:23;;;;;;;8.47;3.30;;;;;;;;;;5064156;28;20184;-60
2021/04/03 01:11:52;;;;;;;9.60;3.53;;;;;;;;;;5061254;28;20188;-59
2021/04/03 01:14:26;;;;;;;5.43;3.17;;;;;;;;;;5043983;28;20230;-59
2021/04/03 01:17:03;;;;;;;7.83;3.53;;;;;;;;;;5061805;28;20184;-59
2021/04/03 01:19:44;;;;;;;8.40;3.20;;;;;;;;;;5045473;28;20176;-60
2021/04/03 01:22:29;;;;;;;7.37;3.60;;;;;;;;;;5062241;28;20192;-59
2021/04/03 01:25:11;;;;;;;8.90;3.10;;;;;;;;;;5062755;28;20191;-59
2021/04/03 01:27:45;;;;;;;7.10;2.83;;;;;;;;;;5060604;28;20177;-61
2021/04/03 01:30:17;;;;;;;6.90;2.90;;;;;;;;;;5043923;28;20887;-61
2021/04/03 01:32:48;;;;;;;6.40;2.60;;;;;;;;;;5062164;28;20161;-59
2021/04/03 01:35:25;;;;;;;7.03;3.03;;;;;;;;;;5061350;28;20208;-59
2021/04/03 01:37:54;;;;;;;5.57;2.90;;;;;;;;;;5062421;28;20234;-61
2021/04/03 01:40:22;;;;;;;6.97;4.37;;;;;;;;;;5063163;28;20180;-59
2021/04/03 01:42:53;;;;;;;10.87;3.33;;;;;;;;;;5062692;28;20172;-59
2021/04/03 01:45:20;;;;;;;10.23;2.97;;;;;;;;;;5045033;28;20565;-59
2021/04/03 01:47:47;;;;;;;8.17;2.80;;;;;;;;;;5060340;28;20204;-60
2021/04/03 01:50:14;;;;;;;8.63;3.20;;;;;;;;;;5062529;28;20687;-59
2021/04/03 01:52:41;;;;;;;7.03;2.97;;;;;;;;;;5061740;28;20260;-59
2021/04/03 01:55:09;;;;;;;8.10;2.80;;;;;;;;;;5041582;28;20204;-61
2021/04/03 01:57:36;;;;;;;9.47;2.87;;;;;;;;;;5060232;28;20603;-59
2021/04/03 02:00:05;;;;;;;7.60;2.73;;;;;;;;;;5061256;28;20177;-60
2021/04/03 02:02:33;;;;;;;5.97;2.67;;;;;;;;;;5060192;28;20176;-59
2021/04/03 02:04:59;;;;;;;6.87;2.80;;;;;;;;;;5060698;28;20181;-59
2021/04/03 02:07:25;;;;;;;6.10;2.33;;;;;;;;;;5044407;28;20185;-60
2021/04/03 02:09:52;;;;;;;4.73;2.43;;;;;;;;;;5061034;28;20184;-59
2021/04/03 02:12:19;;;;;;;5.40;2.27;;;;;;;;;;5060988;28;20698;-59
2021/04/03 02:14:49;;;;;;;6.03;2.70;;;;;;;;;;5061774;28;20200;-62
2021/04/03 02:17:16;;;;;;;8.77;2.77;;;;;;;;;;5045202;28;20575;-59
2021/04/03 02:19:43;;;;;;;7.03;2.43;;;;;;;;;;5045056;28;20188;-61
2021/04/03 02:22:09;;;;;;;8.33;3.23;;;;;;;;;;5061675;28;20185;-60
2021/04/03 02:24:36;;;;;;;6.03;2.23;;;;;;;;;;5060788;28;20176;-59
2021/04/03 02:27:02;;;;;;;4.87;2.40;;;;;;;;;;5058713;28;20181;-59
2021/04/03 02:29:28;;;;;;;9.87;2.10;;;;;;;;;;5063762;28;20461;-59
2021/04/03 02:31:54;;;;;;;9.30;3.73;;;;;;;;;;5060862;28;20224;-59
2021/04/03 02:34:20;;;;;;;5.00;2.17;;;;;;;;;;5061136;28;20193;-59
2021/04/03 02:36:46;;;;;;;6.33;2.47;;;;;;;;;;5059945;28;20185;-60
2021/04/03 02:39:12;;;;;;;9.87;2.87;;;;;;;;;;5061500;28;20180;-61
2021/04/03 02:41:38;;;;;;;8.80;2.30;;;;;;;;;;5060431;28;20251;-59
2021/04/03 02:44:12;;;;;;;3.93;1.93;;;;;;;;;;5061948;28;20216;-60
2021/04/03 02:46:44;;;;;;;6.77;2.90;;;;;;;;;;5041692;28;20719;-59
2021/04/03 02:49:15;;;;;;;9.23;3.00;;;;;;;;;;5059900;28;20193;-60
2021/04/03 02:51:46;;;;;;;7.97;2.80;;;;;;;;;;5061114;28;20243;-59
2021/04/03 02:54:14;;;;;;;11.03;2.87;;;;;;;;;;5059988;28;20200;-61
2021/04/03 02:56:42;;;;;;;7.50;2.60;;;;;;;;;;5040793;28;20230;-59
2021/04/03 02:59:12;;;;;;;6.27;2.70;;;;;;;;;;5044159;28;20261;-61
2021/04/03 03:01:38;;;;;;;5.77;2.60;;;;;;;;;;5041233;28;20184;-60
2021/04/03 03:04:06;;;;;;;7.13;2.50;;;;;;;;;;5046291;28;20176;-60
2021/04/03 03:06:32;;;;;;;7.20;2.97;;;;;;;;;;5070227;28;20183;-60
2021/04/03 03:09:00;;;;;;;6.90;2.90;;;;;;;;;;5059479;28;20279;-60
2021/04/03 03:11:27;;;;;;;8.20;2.90;;;;;;;;;;5070981;28;20216;-60
2021/04/03 03:13:53;;;;;;;6.13;2.07;;;;;;;;;;5052671;28;20238;-60
2021/04/03 03:16:20;;;;;;;11.00;2.60;;;;;;;;;;5070199;28;20681;-60
2021/04/03 03:18:46;;;;;;;11.83;2.67;;;;;;;;;;5071510;28;20199;-59
2021/04/03 03:21:12;;;;;;;5.43;2.27;;;;;;;;;;5053542;28;20826;-60
2021/04/03 03:23:39;;;;;;;6.10;2.73;;;;;;;;;;5037250;28;20222;-60
2021/04/03 03:26:05;;;;;;;7.47;2.57;;;;;;;;;;5060278;28;20606;-59
2021/04/03 03:28:32;;;;;;;6.83;2.17;;;;;;;;;;5070804;28;20199;-60
2021/04/03 03:30:58;;;;;;;9.23;2.10;;;;;;;;;;5057369;28;21099;-61
2021/04/03 03:33:24;;;;;;;4.97;1.83;;;;;;;;;;5069549;28;20205;-60
2021/04/03 03:35:50;;;;;;;6.47;2.73;;;;;;;;;;5052753;28;20235;-60
2021/04/03 03:38:17;;;;;;;6.03;2.67;;;;;;;;;;5052727;28;20169;-59
2021/04/03 03:40:44;;;;;;;9.23;2.47;;;;;;;;;;5058421;28;20220;-60
2021/04/03 03:43:16;;;;;;;10.40;2.60;;;;;;;;;;5053302;28;20256;-60
2021/04/03 03:45:42;;;;;;;6.67;2.20;;;;;;;;;;5053511;28;20893;-61
2021/04/03 03:48:08;;;;;;;6.17;2.47;;;;;;;;;;5052506;28;20195;-62
2021/04/03 03:50:34;;;;;;;7.43;2.20;;;;;;;;;;5070010;28;20208;-61
2021/04/03 03:53:00;;;;;;;7.60;2.30;;;;;;;;;;5062170;28;20185;-59
2021/04/03 03:55:26;;;;;;;11.50;2.77;;;;;;;;;;5064290;28;20533;-60
2021/04/03 03:57:52;;;;;;;7.50;2.23;;;;;;;;;;5050860;28;20227;-62
2021/04/03 04:00:19;;;;;;;8.53;2.70;;;;;;;;;;5066458;28;20230;-61
2021/04/03 04:02:45;;;;;;;7.33;2.00;;;;;;;;;;5071496;28;20585;-60
2021/04/03 04:05:12;;;;;;;9.33;2.80;;;;;;;;;;5047732;28;20238;-60
2021/04/03 04:07:38;;;;;;;8.13;2.47;;;;;;;;;;5071464;28;20238;-60
2021/04/03 04:10:07;;;;;;;7.27;3.07;;;;;;;;;;5045884;28;20192;-60
2021/04/03 04:12:33;;;;;;;5.10;2.00;;;;;;;;;;5052988;28;20259;-60
2021/04/03 04:14:59;;;;;;;6.77;2.40;;;;;;;;;;5048555;28;20296;-59
2021/04/03 04:17:25;;;;;;;5.80;2.90;;;;;;;;;;5059738;28;20276;-60
2021/04/03 04:19:52;;;;;;;3.60;1.90;;;;;;;;;;5053951;28;20183;-60
2021/04/03 04:22:18;;;;;;;7.50;2.10;;;;;;;;;;5067071;28;20180;-60
2021/04/03 04:24:44;;;;;;;7.03;2.60;;;;;;;;;;5051253;28;20258;-60
2021/04/03 04:27:10;;;;;;;7.20;2.23;;;;;;;;;;5069334;28;20245;-59
2021/04/03 04:29:36;;;;;;;5.47;2.20;;;;;;;;;;5066349;28;20223;-59
2021/04/03 04:32:03;;;;;;;7.40;2.10;;;;;;;;;;5034093;28;20177;-59
2021/04/03 04:34:29;;;;;;;5.47;2.13;;;;;;;;;;5060671;28;20204;-60
2021/04/03 04:36:55;;;;;;;5.13;2.47;;;;;;;;;;5070944;28;20173;-60
2021/04/03 04:39:21;;;;;;;6.50;2.47;;;;;;;;;;5067358;28;20180;-59
2021/04/03 04:41:47;;;;;;;6.90;2.40;;;;;;;;;;5050801;28;20235;-59
2021/04/03 04:44:13;;;;;;;7.63;2.40;;;;;;;;;;5060084;28;20180;-59
2021/04/03 04:46:39;;;;;;;8.67;2.70;;;;;;;;;;5053907;28;20554;-59
2021/04/03 04:49:05;;;;;;;4.30;2.17;;;;;;;;;;5069546;28;20215;-59
2021/04/03 04:51:32;;;;;;;9.43;3.10;;;;;;;;;;5065707;28;20627;-60
2021/04/03 04:53:58;;;;;;;6.37;2.37;;;;;;;;;;5058597;28;20172;-59
2021/04/03 04:56:24;;;;;;;11.40;2.60;;;;;;;;;;5057179;28;20208;-61
2021/04/03 04:58:50;;;;;;;5.13;2.10;;;;;;;;;;5056093;28;20256;-60
2021/04/03 05:01:16;;;;;;;9.53;2.10;;;;;;;;;;5052768;28;20267;-59
2021/04/03 05:03:42;;;;;;;6.57;2.40;;;;;;;;;;5050237;28;20176;-59
2021/04/03 05:06:08;;;;;;;7.33;2.37;;;;;;;;;;5060767;28;20509;-59
2021/04/03 05:08:34;;;;;;;6.30;2.10;;;;;;;;;;5052765;28;20191;-60
2021/04/03 05:11:00;;;;;;;15.20;3.07;;;;;;;;;;5048983;28;20258;-59
2021/04/03 05:13:26;;;;;;;6.77;2.17;;;;;;;;;;5051288;28;20544;-59
2021/04/03 05:15:55;;;;;;;6.63;2.30;;;;;;;;;;5061344;28;20198;-59
2021/04/03 05:18:21;;;;;;;7.30;2.57;;;;;;;;;;5032390;28;20226;-59
2021/04/03 05:20:47;;;;;;;10.63;2.70;;;;;;;;;;5060348;28;20183;-59
2021/04/03 05:23:16;;;;;;;7.17;2.10;;;;;;;;;;5059648;28;20213;-59
2021/04/03 05:25:42;;;;;;;7.40;2.47;;;;;;;;;;5065631;28;20181;-59
2021/04/03 05:28:08;;;;;;;10.03;2.57;;;;;;;;;;5051098;28;20191;-59
2021/04/03 05:30:34;;;;;;;8.70;2.50;;;;;;;;;;5061144;28;20211;-60
2021/04/03 05:33:00;;;;;;;7.03;2.67;;;;;;;;;;5070554;28;20243;-59
2021/04/03 05:35:26;;;;;;;5.37;2.20;;;;;;;;;;5069519;28;20200;-59
2021/04/03 05:37:52;;;;;;;5.50;2.80;;;;;;;;;;5069086;28;20193;-60
2021/04/03 05:40:18;;;;;;;7.00;2.80;;;;;;;;;;5052613;28;20223;-59
2021/04/03 05:42:47;;;;;;;10.23;3.13;;;;;;;;;;5050483;28;20181;-59
2021/04/03 05:45:15;;;;;;;6.17;2.63;;;;;;;;;;5064037;28;20888;-59
2021/04/03 05:47:41;;;;;;;9.87;2.70;;;;;;;;;;5050454;28;20174;-59
2021/04/03 05:50:09;;;;;;;5.57;2.17;;;;;;;;;;5040031;28;20232;-59
2021/04/03 05:52:35;;;;;;;11.40;2.80;;;;;;;;;;5055091;28;20632;-59
2021/04/03 05:55:06;;;;;;;9.00;2.73;;;;;;;;;;5050831;28;20236;-59
2021/04/03 05:57:33;;;;;;;9.83;3.93;;;;;;;;;;5054715;28;20177;-59
2021/04/03 05:59:59;;;;;;;8.50;2.63;;;;;;;;;;5071166;28;20176;-59
2021/04/03 06:02:25;;;;;;;6.90;2.30;;;;;;;;;;5073196;28;20177;-60
2021/04/03 06:04:54;;;;;;;5.67;1.80;;;;;;;;;;5047786;28;20553;-59
2021/04/03 06:07:20;;;;;;;7.90;2.30;;;;;;;;;;5053865;28;20185;-59
2021/04/03 06:09:47;;;;;;;7.57;2.20;;;;;;;;;;5040827;28;20268;-59
2021/04/03 06:12:13;;;;;;;7.07;2.60;;;;;;;;;;5059566;28;20246;-59
2021/04/03 06:14:39;;;;;;;8.80;2.87;;;;;;;;;;5042510;28;20201;-59
2021/04/03 06:17:05;;;;;;;8.03;2.03;;;;;;;;;;5053600;28;20624;-59
2021/04/03 06:19:32;;;;;;;7.30;2.53;;;;;;;;;;5063610;28;20192;-59
2021/04/03 06:22:00;;;;;;;9.83;2.73;;;;;;;;;;5072860;28;20180;-59
2021/04/03 06:24:26;;;;;;;9.33;2.80;;;;;;;;;;5063190;28;20181;-59
2021/04/03 06:26:56;;;;;;;4.13;2.17;;;;;;;;;;5052813;28;20192;-60
2021/04/03 06:29:25;;;;;;;14.67;3.37;;;;;;;;;;5063836;28;20647;-59
2021/04/03 06:31:53;;;;;;;7.80;2.60;;;;;;;;;;5057647;28;20173;-59
2021/04/03 06:34:25;;;;;;;10.27;3.50;;;;;;;;;;5060310;28;20669;-59
2021/04/03 06:36:51;;;;;;;10.33;3.27;;;;;;;;;;5034961;28;20177;-59
2021/04/03 06:39:17;;;;;;;10.20;3.13;;;;;;;;;;5061086;28;20184;-59
2021/04/03 06:41:43;;;;;;;12.53;3.77;;;;;;;;;;5067008;28;20217;-59
2021/04/03 06:44:10;;;;;;;9.77;3.57;;;;;;;;;;5042460;28;20173;-59
2021/04/03 06:46:40;;;;;;;8.47;2.70;;;;;;;;;;5042459;28;20632;-59
2021/04/03 06:49:07;;;;;;;6.17;2.97;;;;;;;;;;5059319;28;20189;-59
2021/04/03 06:51:33;;;;;;;6.93;2.43;;;;;;;;;;5052487;28;20216;-59
2021/04/03 06:54:00;;;;;;;6.20;2.50;;;;;;;;;;5057495;28;20584;-59
2021/04/03 06:56:27;;;;;;;10.50;3.47;;;;;;;;;;5053213;28;20243;-59
2021/04/03 06:59:00;;;;;;;9.17;2.63;;;;;;;;;;5068105;28;20287;-59
2021/04/03 07:01:27;;;;;;;5.47;2.47;;;;;;;;;;5066974;28;20173;-61
2021/04/03 07:03:57;;;;;;;8.00;2.80;;;;;;;;;;5064392;28;20176;-61
2021/04/03 07:06:23;;;;;;;8.03;2.83;;;;;;;;;;5041702;28;20187;-60
2021/04/03 07:08:50;;;;;;;8.60;3.30;;;;;;;;;;5057623;28;20546;-59
2021/04/03 07:11:16;;;;;;;8.63;2.80;;;;;;;;;;5065803;28;20187;-59
2021/04/03 07:13:43;;;;;;;7.60;2.50;;;;;;;;;;5036961;28;20196;-59
2021/04/03 07:16:10;;;;;;;11.33;3.80;;;;;;;;;;5062090;28;20197;-59
2021/04/03 07:18:36;;;;;;;14.13;3.83;;;;;;;;;;5059144;28;20271;-58
2021/04/03 07:21:03;;;;;;;5.33;2.60;;;;;;;;;;5069576;28;20165;-59
2021/04/03 07:23:29;;;;;;;12.47;3.33;;;;;;;;;;5056543;28;20824;-59
2021/04/03 07:25:58;;;;;;;8.37;3.00;;;;;;;;;;5055286;28;20250;-60
2021/04/03 07:28:24;;;;;;;8.77;2.50;;;;;;;;;;5051034;28;20611;-59
2021/04/03 07:30:50;;;;;;;12.47;3.50;;;;;;;;;;5069567;28;20709;-60
2021/04/03 07:33:17;;;;;;;5.87;2.57;;;;;;;;;;5062231;28;20188;-59
2021/04/03 07:35:52;;;;;;;8.03;3.50;;;;;;;;;;5047299;28;20205;-59
2021/04/03 07:38:29;;;;;;;7.50;2.77;;;;;;;;;;5040667;28;20210;-59
2021/04/03 07:40:56;;;;;;;11.57;3.73;;;;;;;;;;5062671;28;20290;-59
2021/04/03 07:43:36;;;;;;;11.70;2.80;;;;;;;;;;5070164;28;20508;-59
2021/04/03 07:46:21;;;;;;;9.97;2.43;;;;;;;;;;5064221;28;20176;-59
2021/04/03 07:48:47;;;;;;;6.67;2.53;;;;;;;;;;5067021;28;20180;-60
2021/04/03 07:51:33;;;;;;;7.87;2.70;;;;;;;;;;5055587;28;20177;-59
2021/04/03 07:54:01;;;;;;;11.47;3.37;;;;;;;;;;5044476;28;20205;-59
2021/04/03 07:56:28;;;;;;;8.50;2.93;;;;;;;;;;5044707;28;20204;-59
2021/04/03 07:58:55;;;;;;;13.43;3.10;;;;;;;;;;5060944;28;20215;-60
2021/04/03 08:01:23;;;;;;;14.57;2.60;;;;;;;;;;5065304;28;20243;-60
2021/04/03 08:03:53;;;;;;;6.53;2.40;;;;;;;;;;5042707;28;20176;-59
2021/04/03 08:06:19;;;;;;;8.13;2.70;;;;;;;;;;5069338;28;20223;-59
2021/04/03 08:08:45;;;;;;;6.90;2.70;;;;;;;;;;5071629;28;20184;-59
2021/04/03 08:11:13;;;;;;;12.70;4.07;;;;;;;;;;5064967;28;20284;-59
2021/04/03 08:13:41;;;;;;;7.43;2.60;;;;;;;;;;5057455;28;20211;-59
2021/04/03 08:16:08;;;;;;;11.13;3.90;;;;;;;;;;5061509;28;20197;-59
2021/04/03 08:18:35;;;;;;;10.20;2.93;;;;;;;;;;5065673;28;20184;-59
2021/04/03 08:21:02;;;;;;;9.17;2.53;;;;;;;;;;5047024;28;20190;-59
2021/04/03 08:23:32;;;;;;;7.07;2.87;;;;;;;;;;5053885;28;20192;-59
2021/04/03 08:25:58;;;;;;;10.60;2.90;;;;;;;;;;5060532;28;20700;-59
2021/04/03 08:28:24;;;;;;;8.80;2.90;;;;;;;;;;5052260;28;20196;-59
2021/04/03 08:30:50;;;;;;;5.57;2.43;;;;;;;;;;5063272;28;20204;-59
2021/04/03 08:33:18;;;;;;;7.23;2.77;;;;;;;;;;5041874;28;20196;-61
2021/04/03 08:35:45;;;;;;;10.00;3.10;;;;;;;;;;5039635;28;20299;-59
2021/04/03 08:38:13;;;;;;;12.97;3.00;;;;;;;;;;5050170;28;20260;-59
2021/04/03 08:40:39;;;;;;;9.67;3.00;;;;;;;;;;5058850;28;20237;-59
2021/04/03 08:43:05;;;;;;;9.07;2.80;;;;;;;;;;5059962;28;20211;-59
2021/04/03 08:45:38;;;;;;;8.03;3.70;;;;;;;;;;5041984;28;20193;-62
2021/04/03 08:48:07;;;;;;;8.33;3.10;;;;;;;;;;5047140;28;20176;-59
2021/04/03 08:50:34;;;;;;;7.83;3.27;;;;;;;;;;5056141;28;20284;-59
2021/04/03 08:53:01;;;;;;;10.67;3.57;;;;;;;;;;5053601;28;20587;-60
2021/04/03 08:55:27;;;;;;;12.47;4.20;;;;;;;;;;5053058;28;20299;-60
2021/04/03 08:57:53;;;;;;;11.17;4.43;;;;;;;;;;5039381;28;20177;-60
2021/04/03 09:00:20;;;;;;;15.43;4.43;;;;;;;;;;5061908;28;20185;-60
2021/04/03 09:02:47;;;;;;;17.37;5.27;;;;;;;;;;5062648;28;20184;-62
2021/04/03 09:05:14;;;;;;;35.03;8.50;;;;;;;;;;5060406;28;20598;-60
2021/04/03 09:07:41;;;;;;;105.03;15.27;;;;;;;;;;5033468;28;20635;-59
2021/04/03 09:10:07;;;;;;;75.63;11.33;;;;;;;;;;5061294;28;20176;-61
2021/04/03 09:12:33;;;;;;;80.37;11.87;;;;;;;;;;5061809;28;20197;-59
2021/04/03 09:14:59;;;;;;;61.47;11.17;;;;;;;;;;5057079;28;20675;-59
2021/04/03 09:17:26;;;;;;;67.60;9.53;;;;;;;;;;5055035;28;20177;-60
2021/04/03 09:20:14;;;;;;;96.40;13.30;;;;;;;;;;5067158;28;20188;-61
2021/04/03 09:22:41;;;;;;;87.43;12.93;;;;;;;;;;5065715;28;20165;-60
2021/04/03 09:25:08;;;;;;;158.87;17.90;;;;;;;;;;5060569;28;20201;-59
2021/04/03 09:27:35;;;;;;;120.27;13.40;;;;;;;;;;5074236;28;20208;-59
2021/04/03 09:30:06;;;;;;;163.33;18.80;;;;;;;;;;5072145;28;20636;-61
2021/04/03 09:32:40;;;;;;;14.23;4.93;;;;;;;;;;5055792;28;20229;-60
2021/04/03 09:35:06;;;;;;;13.27;4.80;;;;;;;;;;5067156;28;20217;-59
2021/04/03 09:37:32;;;;;;;20.37;5.00;;;;;;;;;;5059545;28;20183;-60
2021/04/03 09:39:59;;;;;;;12.63;4.33;;;;;;;;;;5064338;28;20173;-59
2021/04/03 09:42:29;;;;;;;15.37;6.40;;;;;;;;;;5053798;28;20240;-59
2021/04/03 09:44:56;;;;;;;14.40;6.18;;;;;;;;;;5040901;28;20759;-60
2021/04/03 09:47:22;;;;;;;13.30;5.43;;;;;;;;;;5070260;28;20539;-63
2021/04/03 09:49:49;;;;;;;14.77;4.63;;;;;;;;;;5042327;28;20208;-61
2021/04/03 09:52:15;;;;;;;13.03;4.50;;;;;;;;;;5038585;28;20219;-59
2021/04/03 09:54:42;;;;;;;12.40;4.83;;;;;;;;;;5070004;28;20691;-59
2021/04/03 09:57:08;;;;;;;23.47;6.50;;;;;;;;;;5071356;28;20184;-59
2021/04/03 09:59:34;;;;;;;10.63;4.60;;;;;;;;;;5071669;28;20200;-59
2021/04/03 10:02:01;;;;;;;13.03;4.67;;;;;;;;;;5053295;28;20181;-59
2021/04/03 10:04:27;;;;;;;14.30;4.27;;;;;;;;;;5045711;28;20184;-59
2021/04/03 10:06:54;;;;;;;13.33;4.47;;;;;;;;;;5054713;28;20769;-59
2021/04/03 10:09:20;;;;;;;15.93;4.83;;;;;;;;;;5059517;28;20604;-61
2021/04/03 10:11:47;;;;;;;19.43;5.13;;;;;;;;;;5060315;28;20196;-60
2021/04/03 10:14:13;;;;;;;17.20;4.90;;;;;;;;;;5069078;28;20182;-64
2021/04/03 10:16:39;;;;;;;11.60;4.70;;;;;;;;;;5038556;28;20236;-61
2021/04/03 10:19:06;;;;;;;16.30;4.40;;;;;;;;;;5063096;28;20188;-60
2021/04/03 10:21:32;;;;;;;15.40;4.60;;;;;;;;;;5050784;28;20183;-61
2021/04/03 10:23:58;;;;;;;16.27;3.90;;;;;;;;;;5072561;28;20196;-62
2021/04/03 10:26:24;;;;;;;9.53;4.47;;;;;;;;;;5064348;28;20203;-60
2021/04/03 10:28:50;;;;;;;10.40;4.03;;;;;;;;;;5071919;28;20208;-60
2021/04/03 10:31:17;;;;;;;12.17;4.27;;;;;;;;;;5054302;28;20192;-60
2021/04/03 10:33:43;;;;;;;13.27;3.87;;;;;;;;;;5055715;28;20188;-63
2021/04/03 10:36:10;;;;;;;12.87;3.77;;;;;;;;;;5037437;28;20223;-60
2021/04/03 10:38:36;;;;;;;44.80;10.03;;;;;;;;;;5071843;28;20177;-59
2021/04/03 10:41:03;;;;;;;24.43;5.07;;;;;;;;;;5060029;28;20271;-60
2021/04/03 10:43:29;;;;;;;22.27;5.27;;;;;;;;;;5055302;28;20192;-60
2021/04/03 10:45:55;;;;;;;19.83;4.80;;;;;;;;;;5071639;28;20537;-60
2021/04/03 10:48:21;;;;;;;14.67;4.50;;;;;;;;;;5043044;28;20188;-59
2021/04/03 10:50:47;;;;;;;31.60;5.43;;;;;;;;;;5069796;28;20207;-60
2021/04/03 10:53:13;;;;;;;16.73;4.70;;;;;;;;;;5064566;28;20177;-63
2021/04/03 10:55:41;;;;;;;11.20;3.80;;;;;;;;;;5041258;28;20610;-60
2021/04/03 10:58:07;;;;;;;8.20;4.00;;;;;;;;;;5050498;28;20257;-60
2021/04/03 11:00:33;;;;;;;15.17;3.77;;;;;;;;;;5057710;28;20791;-60
2021/04/03 11:02:59;;;;;;;12.30;4.30;;;;;;;;;;5037579;28;20662;-60
2021/04/03 11:05:25;;;;;;;11.37;4.03;;;;;;;;;;5056771;28;20173;-60
2021/04/03 11:07:51;;;;;;;16.97;4.60;;;;;;;;;;5052162;28;20600;-60
2021/04/03 11:10:18;;;;;;;13.83;4.27;;;;;;;;;;5065442;28;20177;-61
2021/04/03 11:12:44;;;;;;;7.90;4.10;;;;;;;;;;5069520;28;20188;-61
2021/04/03 11:15:11;;;;;;;13.10;4.97;;;;;;;;;;5062494;28;20678;-60
2021/04/03 11:17:37;;;;;;;13.27;5.50;;;;;;;;;;5059076;28;20680;-61
2021/04/03 11:20:08;;;;;;;14.80;4.40;;;;;;;;;;5061252;28;20189;-63
2021/04/03 11:22:34;;;;;;;20.37;5.10;;;;;;;;;;5055129;28;20177;-61
2021/04/03 11:25:00;;;;;;;16.53;4.03;;;;;;;;;;5050200;28;20253;-61
2021/04/03 11:27:26;;;;;;;30.43;4.90;;;;;;;;;;5070443;28;20226;-61
2021/04/03 11:29:52;;;;;;;46.80;7.67;;;;;;;;;;5071278;28;20172;-61
2021/04/03 11:32:18;;;;;;;24.42;5.97;;;;;;;;;;5054174;28;20415;-61
2021/04/03 11:34:44;;;;;;;15.13;5.50;;;;;;;;;;5056465;28;20205;-61
2021/04/03 11:37:10;;;;;;;117.73;13.87;;;;;;;;;;5057012;28;20176;-63
2021/04/03 11:39:37;;;;;;;73.33;10.87;;;;;;;;;;5068157;28;20176;-61
2021/04/03 11:42:03;;;;;;;41.67;6.70;;;;;;;;;;5065521;28;20215;-62
2021/04/03 11:44:29;;;;;;;40.97;5.97;;;;;;;;;;5065433;28;20180;-62
2021/04/03 11:46:57;;;;;;;20.93;6.47;;;;;;;;;;5035502;28;20181;-60
2021/04/03 11:49:23;;;;;;;13.90;4.80;;;;;;;;;;5035018;28;20188;-59
2021/04/03 11:51:49;;;;;;;13.93;4.80;;;;;;;;;;5054657;28;20225;-62
2021/04/03 11:54:17;;;;;;;13.57;5.47;;;;;;;;;;5069883;28;20564;-60
2021/04/03 11:56:43;;;;;;;16.07;4.23;;;;;;;;;;5055258;28;20270;-60
2021/04/03 11:59:09;;;;;;;11.73;5.03;;;;;;;;;;5058874;28;20631;-61
2021/04/03 12:01:35;;;;;;;12.40;5.00;;;;;;;;;;5059337;28;20184;-59
2021/04/03 12:04:01;;;;;;;12.00;5.20;;;;;;;;;;5060866;28;20169;-59
2021/04/03 12:06:27;;;;;;;15.10;5.90;;;;;;;;;;5033513;28;20267;-59
2021/04/03 12:08:53;;;;;;;10.17;5.23;;;;;;;;;;5058529;28;20180;-59
2021/04/03 12:11:19;;;;;;;14.63;6.50;;;;;;;;;;5037193;28;20220;-60
2021/04/03 12:13:45;;;;;;;17.23;6.10;;;;;;;;;;5058617;28;20188;-60
2021/04/03 12:16:11;;;;;;;16.20;6.80;;;;;;;;;;5055528;28;20565;-60
2021/04/03 12:18:37;;;;;;;18.37;6.40;;;;;;;;;;5059872;28;20176;-61
2021/04/03 12:21:03;;;;;;;16.37;5.43;;;;;;;;;;5041732;28;20620;-61
2021/04/03 12:23:29;;;;;;;11.40;4.27;;;;;;;;;;5059315;28;20188;-61
2021/04/03 12:25:56;;;;;;;8.73;4.37;;;;;;;;;;5064818;28;20204;-60
2021/04/03 12:28:23;;;;;;;8.73;4.10;;;;;;;;;;5065613;28;20169;-60
2021/04/03 12:30:49;;;;;;;13.93;4.70;;;;;;;;;;5069728;28;20188;-60
2021/04/03 12:33:15;;;;;;;19.10;5.80;;;;;;;;;;5064389;28;20181;-60
2021/04/03 12:35:41;;;;;;;7.00;4.30;;;;;;;;;;5070937;28;20231;-60
2021/04/03 12:38:07;;;;;;;10.50;3.80;;;;;;;;;;5065374;28;20177;-60
2021/04/03 12:40:33;;;;;;;55.27;9.23;;;;;;;;;;5050603;28;20632;-60
2021/04/03 12:42:59;;;;;;;211.10;26.43;;;;;;;;;;5025602;28;20216;-60
2021/04/03 12:45:25;;;;;;;31.80;8.33;;;;;;;;;;5068649;28;20517;-60
2021/04/03 12:47:51;;;;;;;27.77;7.53;;;;;;;;;;5052422;28;20205;-60
2021/04/03 12:50:17;;;;;;;26.73;8.93;;;;;;;;;;5053844;28;20258;-60
2021/04/03 12:52:43;;;;;;;18.93;6.73;;;;;;;;;;5050808;28;20177;-60
2021/04/03 12:55:09;;;;;;;16.60;6.10;;;;;;;;;;5052896;28;20274;-60
2021/04/03 12:57:36;;;;;;;12.47;6.03;;;;;;;;;;5053817;28;20185;-60
2021/04/03 13:00:02;;;;;;;13.17;4.60;;;;;;;;;;5058796;28;20192;-60
2021/04/03 13:02:28;;;;;;;13.20;4.73;;;;;;;;;;5089180;28;20186;-59
2021/04/03 13:04:54;;;;;;;11.47;4.70;;;;;;;;;;5058754;28;20181;-60
2021/04/03 13:07:20;;;;;;;11.30;4.30;;;;;;;;;;5068515;28;20235;-61
2021/04/03 13:09:46;;;;;;;9.33;4.97;;;;;;;;;;5066331;28;20177;-60
2021/04/03 13:12:13;;;;;;;12.73;6.50;;;;;;;;;;5068089;28;20504;-60
2021/04/03 13:14:39;;;;;;;15.33;7.93;;;;;;;;;;5059121;28;20184;-60
2021/04/03 13:17:05;;;;;;;18.13;6.97;;;;;;;;;;5046284;28;20181;-62
2021/04/03 13:19:31;;;;;;;15.00;5.97;;;;;;;;;;5069893;28;20177;-60
2021/04/03 13:21:57;;;;;;;13.43;4.87;;;;;;;;;;5070283;28;20491;-60
2021/04/03 13:24:23;;;;;;;19.27;6.60;;;;;;;;;;5067179;28;20510;-60
2021/04/03 13:26:49;;;;;;;10.17;4.73;;;;;;;;;;5065449;28;20192;-60
2021/04/03 13:29:15;;;;;;;10.70;4.73;;;;;;;;;;5074257;28;20188;-62
2021/04/03 13:31:41;;;;;;;13.50;6.17;;;;;;;;;;5047432;28;20527;-60
2021/04/03 13:34:07;;;;;;;14.50;6.33;;;;;;;;;;5068373;28;20173;-59
2021/04/03 13:36:33;;;;;;;12.60;5.73;;;;;;;;;;5064565;28;20200;-59
2021/04/03 13:38:59;;;;;;;10.80;5.37;;;;;;;;;;5068820;28;20180;-59
2021/04/03 13:41:25;;;;;;;16.47;5.77;;;;;;;;;;5059070;28;20274;-63
2021/04/03 13:43:52;;;;;;;14.23;5.50;;;;;;;;;;5070104;28;20173;-59
2021/04/03 13:46:18;;;;;;;11.53;5.53;;;;;;;;;;5064179;28;20173;-59
2021/04/03 13:48:44;;;;;;;10.93;5.93;;;;;;;;;;5055816;28;20287;-60
2021/04/03 13:51:10;;;;;;;10.77;5.60;;;;;;;;;;5061524;28;20241;-59
2021/04/03 13:53:36;;;;;;;14.47;5.50;;;;;;;;;;5072501;28;20644;-60
2021/04/03 13:56:02;;;;;;;8.83;4.30;;;;;;;;;;5039448;28;20552;-59
2021/04/03 13:58:28;;;;;;;9.00;4.87;;;;;;;;;;5052270;28;20191;-60
2021/04/03 14:00:54;;;;;;;10.10;4.40;;;;;;;;;;5074960;28;20569;-60
2021/04/03 14:03:20;;;;;;;6.83;4.37;;;;;;;;;;5071525;28;20267;-61
2021/04/03 14:05:46;;;;;;;12.17;4.87;;;;;;;;;;5051355;28;20317;-60
2021/04/03 14:08:12;;;;;;;10.37;4.30;;;;;;;;;;5070275;28;20195;-60
2021/04/03 14:10:39;;;;;;;10.37;4.33;;;;;;;;;;5073554;28;20184;-62
2021/04/03 14:13:05;;;;;;;9.73;4.37;;;;;;;;;;5073178;28;20623;-62
2021/04/03 14:15:31;;;;;;;13.13;4.67;;;;;;;;;;5070907;28;20243;-61
2021/04/03 14:17:57;;;;;;;12.47;4.57;;;;;;;;;;5072929;28;20165;-62
2021/04/03 14:20:23;;;;;;;12.37;4.97;;;;;;;;;;5066154;28;20180;-62
2021/04/03 14:22:49;;;;;;;73.90;9.77;;;;;;;;;;5061828;28;20186;-61
2021/04/03 14:25:16;;;;;;;43.80;8.40;;;;;;;;;;5065510;28;20180;-64
2021/04/03 14:27:45;;;;;;;25.33;5.23;;;;;;;;;;5071254;28;20295;-62
2021/04/03 14:30:11;;;;;;;22.40;6.00;;;;;;;;;;5052242;28;20183;-60
2021/04/03 14:32:37;;;;;;;23.30;5.67;;;;;;;;;;5035228;28;20185;-60
2021/04/03 14:35:04;;;;;;;29.23;6.93;;;;;;;;;;5063411;28;20275;-60